sensor_id;sensor_type;location;lat;lon;timestamp;temperature;humidity
65478;SHT31;53678;39.642;22.430;2023-08-24T00:00:47;26.45;54.05
65478;SHT31;53678;39.642;22.430;2023-08-24T00:03:13;26.42;54.33
65478;SHT31;53678;39.642;22.430;2023-08-24T00:05:40;26.42;54.13
65478;SHT31;53678;39.642;22.430;2023-08-24T00:08:07;26.42;54.03
65478;SHT31;53678;39.642;22.430;2023-08-24T00:10:35;26.00;55.01
65478;SHT31;53678;39.642;22.430;2023-08-24T00:13:01;26.17;54.63
65478;SHT31;53678;39.642;22.430;2023-08-24T00:15:28;26.24;54.37
65478;SHT31;53678;39.642;22.430;2023-08-24T00:17:55;26.17;54.81
65478;SHT31;53678;39.642;22.430;2023-08-24T00:20:21;26.15;54.87
65478;SHT31;53678;39.642;22.430;2023-08-24T00:22:48;25.77;55.57
65478;SHT31;53678;39.642;22.430;2023-08-24T00:25:14;25.88;55.44
65478;SHT31;53678;39.642;22.430;2023-08-24T00:27:40;25.77;55.64
65478;SHT31;53678;39.642;22.430;2023-08-24T00:30:07;25.88;55.07
65478;SHT31;53678;39.642;22.430;2023-08-24T00:32:34;25.94;54.28
65478;SHT31;53678;39.642;22.430;2023-08-24T00:35:05;25.80;54.50
65478;SHT31;53678;39.642;22.430;2023-08-24T00:37:36;25.79;54.50
65478;SHT31;53678;39.642;22.430;2023-08-24T00:40:03;25.67;55.09
65478;SHT31;53678;39.642;22.430;2023-08-24T00:42:39;25.56;55.48
65478;SHT31;53678;39.642;22.430;2023-08-24T00:45:07;25.25;56.53
65478;SHT31;53678;39.642;22.430;2023-08-24T00:47:33;24.74;58.15
65478;SHT31;53678;39.642;22.430;2023-08-24T00:50:00;24.75;58.11
65478;SHT31;53678;39.642;22.430;2023-08-24T00:52:28;24.92;57.77
65478;SHT31;53678;39.642;22.430;2023-08-24T00:54:54;25.04;57.35
65478;SHT31;53678;39.642;22.430;2023-08-24T00:57:21;25.04;57.23
65478;SHT31;53678;39.642;22.430;2023-08-24T00:59:48;25.07;57.58
65478;SHT31;53678;39.642;22.430;2023-08-24T01:02:14;25.09;57.12
65478;SHT31;53678;39.642;22.430;2023-08-24T01:04:43;25.02;57.41
65478;SHT31;53678;39.642;22.430;2023-08-24T01:07:10;25.15;57.38
65478;SHT31;53678;39.642;22.430;2023-08-24T01:09:36;25.21;57.11
65478;SHT31;53678;39.642;22.430;2023-08-24T01:17:27;25.26;57.04
65478;SHT31;53678;39.642;22.430;2023-08-24T01:19:55;25.26;57.24
65478;SHT31;53678;39.642;22.430;2023-08-24T01:25:00;25.09;57.30
65478;SHT31;53678;39.642;22.430;2023-08-24T01:27:27;25.16;57.10
65478;SHT31;53678;39.642;22.430;2023-08-24T01:29:54;25.07;57.09
65478;SHT31;53678;39.642;22.430;2023-08-24T01:32:24;25.30;56.64
65478;SHT31;53678;39.642;22.430;2023-08-24T01:34:50;25.23;56.54
65478;SHT31;53678;39.642;22.430;2023-08-24T01:37:16;25.23;56.48
65478;SHT31;53678;39.642;22.430;2023-08-24T01:40:17;25.19;56.23
65478;SHT31;53678;39.642;22.430;2023-08-24T01:42:47;25.22;56.07
65478;SHT31;53678;39.642;22.430;2023-08-24T01:45:16;25.42;55.74
65478;SHT31;53678;39.642;22.430;2023-08-24T01:47:42;25.43;55.91
65478;SHT31;53678;39.642;22.430;2023-08-24T01:50:10;25.39;55.69
65478;SHT31;53678;39.642;22.430;2023-08-24T01:52:36;25.49;55.70
65478;SHT31;53678;39.642;22.430;2023-08-24T01:55:02;25.65;55.07
65478;SHT31;53678;39.642;22.430;2023-08-24T01:57:28;25.71;53.89
65478;SHT31;53678;39.642;22.430;2023-08-24T01:59:54;25.81;53.28
65478;SHT31;53678;39.642;22.430;2023-08-24T02:02:20;25.77;52.74
65478;SHT31;53678;39.642;22.430;2023-08-24T02:04:46;25.83;52.92
65478;SHT31;53678;39.642;22.430;2023-08-24T02:07:12;25.87;52.55
65478;SHT31;53678;39.642;22.430;2023-08-24T02:09:38;25.91;52.86
65478;SHT31;53678;39.642;22.430;2023-08-24T02:12:03;25.94;52.65
65478;SHT31;53678;39.642;22.430;2023-08-24T02:14:29;26.01;52.81
65478;SHT31;53678;39.642;22.430;2023-08-24T02:16:55;26.09;52.47
65478;SHT31;53678;39.642;22.430;2023-08-24T02:19:21;25.98;52.41
65478;SHT31;53678;39.642;22.430;2023-08-24T02:21:47;25.96;52.60
65478;SHT31;53678;39.642;22.430;2023-08-24T02:24:12;26.05;52.48
65478;SHT31;53678;39.642;22.430;2023-08-24T02:26:38;25.97;52.74
65478;SHT31;53678;39.642;22.430;2023-08-24T02:29:04;26.05;52.63
65478;SHT31;53678;39.642;22.430;2023-08-24T02:31:30;26.14;52.38
65478;SHT31;53678;39.642;22.430;2023-08-24T02:33:56;26.20;52.27
65478;SHT31;53678;39.642;22.430;2023-08-24T02:36:21;26.11;52.17
65478;SHT31;53678;39.642;22.430;2023-08-24T02:38:47;25.81;54.01
65478;SHT31;53678;39.642;22.430;2023-08-24T02:41:13;25.45;56.17
65478;SHT31;53678;39.642;22.430;2023-08-24T02:43:40;25.36;56.40
65478;SHT31;53678;39.642;22.430;2023-08-24T02:46:09;25.36;56.11
65478;SHT31;53678;39.642;22.430;2023-08-24T02:48:36;25.22;56.81
65478;SHT31;53678;39.642;22.430;2023-08-24T02:51:03;25.21;57.31
65478;SHT31;53678;39.642;22.430;2023-08-24T02:53:29;25.11;58.07
65478;SHT31;53678;39.642;22.430;2023-08-24T02:55:55;24.95;58.91
65478;SHT31;53678;39.642;22.430;2023-08-24T02:58:22;24.60;60.65
65478;SHT31;53678;39.642;22.430;2023-08-24T03:00:48;24.40;61.90
65478;SHT31;53678;39.642;22.430;2023-08-24T03:03:16;24.12;62.53
65478;SHT31;53678;39.642;22.430;2023-08-24T03:06:00;24.32;61.78
65478;SHT31;53678;39.642;22.430;2023-08-24T03:08:28;24.24;62.01
65478;SHT31;53678;39.642;22.430;2023-08-24T03:10:56;24.39;61.63
65478;SHT31;53678;39.642;22.430;2023-08-24T03:13:22;24.08;62.52
65478;SHT31;53678;39.642;22.430;2023-08-24T03:15:50;23.72;63.54
65478;SHT31;53678;39.642;22.430;2023-08-24T03:18:16;23.41;64.14
65478;SHT31;53678;39.642;22.430;2023-08-24T03:20:43;23.54;64.21
65478;SHT31;53678;39.642;22.430;2023-08-24T03:23:09;23.69;63.93
65478;SHT31;53678;39.642;22.430;2023-08-24T03:25:36;23.92;62.95
65478;SHT31;53678;39.642;22.430;2023-08-24T03:28:04;24.01;62.73
65478;SHT31;53678;39.642;22.430;2023-08-24T03:30:30;24.01;63.10
65478;SHT31;53678;39.642;22.430;2023-08-24T03:32:56;23.98;63.44
65478;SHT31;53678;39.642;22.430;2023-08-24T03:35:23;24.08;62.91
65478;SHT31;53678;39.642;22.430;2023-08-24T03:37:50;24.09;62.87
65478;SHT31;53678;39.642;22.430;2023-08-24T03:40:16;23.89;63.39
65478;SHT31;53678;39.642;22.430;2023-08-24T03:42:42;23.95;62.68
65478;SHT31;53678;39.642;22.430;2023-08-24T03:45:08;23.86;63.38
65478;SHT31;53678;39.642;22.430;2023-08-24T03:47:34;23.92;62.91
65478;SHT31;53678;39.642;22.430;2023-08-24T03:49:59;23.96;62.66
65478;SHT31;53678;39.642;22.430;2023-08-24T03:52:26;24.08;62.25
65478;SHT31;53678;39.642;22.430;2023-08-24T03:54:52;24.40;61.45
65478;SHT31;53678;39.642;22.430;2023-08-24T03:57:18;24.22;61.74
65478;SHT31;53678;39.642;22.430;2023-08-24T03:59:43;23.90;61.00
65478;SHT31;53678;39.642;22.430;2023-08-24T04:02:10;24.22;60.69
65478;SHT31;53678;39.642;22.430;2023-08-24T04:04:35;24.37;59.78
65478;SHT31;53678;39.642;22.430;2023-08-24T04:07:01;24.50;59.77
65478;SHT31;53678;39.642;22.430;2023-08-24T04:09:28;24.57;59.72
65478;SHT31;53678;39.642;22.430;2023-08-24T04:11:54;24.75;59.01
65478;SHT31;53678;39.642;22.430;2023-08-24T04:14:20;24.92;58.15
65478;SHT31;53678;39.642;22.430;2023-08-24T04:16:46;25.12;57.04
65478;SHT31;53678;39.642;22.430;2023-08-24T04:19:13;25.18;56.86
65478;SHT31;53678;39.642;22.430;2023-08-24T04:21:40;25.47;55.97
65478;SHT31;53678;39.642;22.430;2023-08-24T04:24:07;25.71;55.06
65478;SHT31;53678;39.642;22.430;2023-08-24T04:26:32;25.94;54.24
65478;SHT31;53678;39.642;22.430;2023-08-24T04:28:58;25.98;54.15
65478;SHT31;53678;39.642;22.430;2023-08-24T04:31:24;26.21;53.90
65478;SHT31;53678;39.642;22.430;2023-08-24T04:33:50;26.28;52.99
65478;SHT31;53678;39.642;22.430;2023-08-24T04:36:15;26.59;52.54
65478;SHT31;53678;39.642;22.430;2023-08-24T04:38:42;26.90;52.26
65478;SHT31;53678;39.642;22.430;2023-08-24T04:41:09;27.08;51.49
65478;SHT31;53678;39.642;22.430;2023-08-24T04:43:35;27.14;51.24
65478;SHT31;53678;39.642;22.430;2023-08-24T04:46:02;27.40;51.20
65478;SHT31;53678;39.642;22.430;2023-08-24T04:48:28;27.85;50.15
65478;SHT31;53678;39.642;22.430;2023-08-24T04:51:02;27.99;49.84
65478;SHT31;53678;39.642;22.430;2023-08-24T04:53:28;28.19;49.41
65478;SHT31;53678;39.642;22.430;2023-08-24T04:55:54;28.56;48.98
65478;SHT31;53678;39.642;22.430;2023-08-24T04:58:22;28.61;48.94
65478;SHT31;53678;39.642;22.430;2023-08-24T05:00:48;29.04;48.49
65478;SHT31;53678;39.642;22.430;2023-08-24T05:03:15;29.28;48.12
65478;SHT31;53678;39.642;22.430;2023-08-24T05:05:44;28.98;48.33
65478;SHT31;53678;39.642;22.430;2023-08-24T05:08:09;28.75;48.63
65478;SHT31;53678;39.642;22.430;2023-08-24T05:10:36;28.77;48.56
65478;SHT31;53678;39.642;22.430;2023-08-24T05:13:02;29.09;48.09
65478;SHT31;53678;39.642;22.430;2023-08-24T05:15:28;29.49;47.70
65478;SHT31;53678;39.642;22.430;2023-08-24T05:17:54;29.74;47.00
65478;SHT31;53678;39.642;22.430;2023-08-24T05:20:21;30.27;46.28
65478;SHT31;53678;39.642;22.430;2023-08-24T05:22:47;31.14;45.44
65478;SHT31;53678;39.642;22.430;2023-08-24T05:25:13;30.83;46.81
65478;SHT31;53678;39.642;22.430;2023-08-24T05:27:39;30.94;47.74
65478;SHT31;53678;39.642;22.430;2023-08-24T05:30:06;30.96;48.40
65478;SHT31;53678;39.642;22.430;2023-08-24T05:32:32;31.16;48.74
65478;SHT31;53678;39.642;22.430;2023-08-24T05:34:59;30.80;49.15
65478;SHT31;53678;39.642;22.430;2023-08-24T05:37:25;30.84;49.31
65478;SHT31;53678;39.642;22.430;2023-08-24T05:39:51;30.96;49.99
65478;SHT31;53678;39.642;22.430;2023-08-24T05:42:16;29.49;52.45
65478;SHT31;53678;39.642;22.430;2023-08-24T05:44:42;29.69;51.13
65478;SHT31;53678;39.642;22.430;2023-08-24T05:47:07;30.05;50.52
65478;SHT31;53678;39.642;22.430;2023-08-24T05:49:33;29.43;51.60
65478;SHT31;53678;39.642;22.430;2023-08-24T05:52:00;29.81;51.05
65478;SHT31;53678;39.642;22.430;2023-08-24T05:54:26;28.68;53.15
65478;SHT31;53678;39.642;22.430;2023-08-24T05:56:52;28.90;52.92
65478;SHT31;53678;39.642;22.430;2023-08-24T05:59:19;29.26;51.99
65478;SHT31;53678;39.642;22.430;2023-08-24T06:01:44;28.97;53.07
65478;SHT31;53678;39.642;22.430;2023-08-24T06:04:10;29.28;52.00
65478;SHT31;53678;39.642;22.430;2023-08-24T06:06:37;29.52;51.99
65478;SHT31;53678;39.642;22.430;2023-08-24T06:09:04;29.73;50.53
65478;SHT31;53678;39.642;22.430;2023-08-24T06:11:30;29.80;49.47
65478;SHT31;53678;39.642;22.430;2023-08-24T06:13:56;29.91;49.85
65478;SHT31;53678;39.642;22.430;2023-08-24T06:23:17;28.56;53.23
65478;SHT31;53678;39.642;22.430;2023-08-24T06:25:43;28.03;52.54
65478;SHT31;53678;39.642;22.430;2023-08-24T06:28:10;28.26;53.65
65478;SHT31;53678;39.642;22.430;2023-08-24T06:30:41;29.30;52.39
65478;SHT31;53678;39.642;22.430;2023-08-24T06:33:08;28.70;52.70
65478;SHT31;53678;39.642;22.430;2023-08-24T06:39:23;29.87;50.39
65478;SHT31;53678;39.642;22.430;2023-08-24T06:41:50;30.03;49.57
65478;SHT31;53678;39.642;22.430;2023-08-24T06:44:23;30.17;49.26
65478;SHT31;53678;39.642;22.430;2023-08-24T06:46:49;30.44;48.57
65478;SHT31;53678;39.642;22.430;2023-08-24T06:49:15;30.61;48.37
65478;SHT31;53678;39.642;22.430;2023-08-24T06:51:41;30.89;48.01
65478;SHT31;53678;39.642;22.430;2023-08-24T06:54:08;31.29;47.15
65478;SHT31;53678;39.642;22.430;2023-08-24T06:56:34;31.41;46.72
65478;SHT31;53678;39.642;22.430;2023-08-24T06:59:00;31.55;46.51
65478;SHT31;53678;39.642;22.430;2023-08-24T07:01:27;31.82;46.45
65478;SHT31;53678;39.642;22.430;2023-08-24T07:03:52;31.81;46.45
65478;SHT31;53678;39.642;22.430;2023-08-24T07:06:18;31.93;45.36
65478;SHT31;53678;39.642;22.430;2023-08-24T07:08:43;31.89;45.41
65478;SHT31;53678;39.642;22.430;2023-08-24T07:11:09;31.93;45.49
65478;SHT31;53678;39.642;22.430;2023-08-24T07:13:35;31.88;45.37
65478;SHT31;53678;39.642;22.430;2023-08-24T07:16:02;31.69;45.73
65478;SHT31;53678;39.642;22.430;2023-08-24T07:18:28;31.61;45.65
65478;SHT31;53678;39.642;22.430;2023-08-24T07:20:54;31.88;45.31
65478;SHT31;53678;39.642;22.430;2023-08-24T07:23:20;32.15;44.75
65478;SHT31;53678;39.642;22.430;2023-08-24T07:25:46;32.26;44.58
65478;SHT31;53678;39.642;22.430;2023-08-24T07:28:11;32.19;44.23
65478;SHT31;53678;39.642;22.430;2023-08-24T07:30:37;32.41;43.56
65478;SHT31;53678;39.642;22.430;2023-08-24T07:33:03;31.92;44.79
65478;SHT31;53678;39.642;22.430;2023-08-24T07:35:29;32.67;43.44
65478;SHT31;53678;39.642;22.430;2023-08-24T07:37:55;32.97;42.82
65478;SHT31;53678;39.642;22.430;2023-08-24T07:40:21;33.26;42.58
65478;SHT31;53678;39.642;22.430;2023-08-24T07:42:48;33.58;42.10
65478;SHT31;53678;39.642;22.430;2023-08-24T07:45:16;33.92;41.86
65478;SHT31;53678;39.642;22.430;2023-08-24T07:47:42;34.06;41.32
65478;SHT31;53678;39.642;22.430;2023-08-24T07:50:10;33.79;41.90
65478;SHT31;53678;39.642;22.430;2023-08-24T07:52:39;33.65;41.49
65478;SHT31;53678;39.642;22.430;2023-08-24T07:55:06;33.96;41.20
65478;SHT31;53678;39.642;22.430;2023-08-24T07:57:35;34.19;41.60
65478;SHT31;53678;39.642;22.430;2023-08-24T08:00:01;34.14;40.62
65478;SHT31;53678;39.642;22.430;2023-08-24T08:02:38;34.37;40.98
65478;SHT31;53678;39.642;22.430;2023-08-24T08:05:04;34.13;40.86
65478;SHT31;53678;39.642;22.430;2023-08-24T08:07:30;34.06;41.33
65478;SHT31;53678;39.642;22.430;2023-08-24T08:09:56;33.61;41.99
65478;SHT31;53678;39.642;22.430;2023-08-24T08:12:24;33.41;42.14
65478;SHT31;53678;39.642;22.430;2023-08-24T08:14:50;33.90;41.64
65478;SHT31;53678;39.642;22.430;2023-08-24T08:17:16;33.96;41.49
65478;SHT31;53678;39.642;22.430;2023-08-24T08:19:42;33.79;41.32
65478;SHT31;53678;39.642;22.430;2023-08-24T08:22:07;33.86;40.92
65478;SHT31;53678;39.642;22.430;2023-08-24T08:24:33;34.31;40.19
65478;SHT31;53678;39.642;22.430;2023-08-24T08:26:59;34.67;39.91
65478;SHT31;53678;39.642;22.430;2023-08-24T08:29:25;34.82;39.84
65478;SHT31;53678;39.642;22.430;2023-08-24T08:31:50;34.69;40.21
65478;SHT31;53678;39.642;22.430;2023-08-24T08:34:16;34.72;39.73
65478;SHT31;53678;39.642;22.430;2023-08-24T08:36:42;34.23;40.19
65478;SHT31;53678;39.642;22.430;2023-08-24T08:39:08;34.48;40.53
65478;SHT31;53678;39.642;22.430;2023-08-24T08:41:41;34.40;40.04
65478;SHT31;53678;39.642;22.430;2023-08-24T08:44:10;34.64;40.24
65478;SHT31;53678;39.642;22.430;2023-08-24T08:46:38;34.86;39.66
65478;SHT31;53678;39.642;22.430;2023-08-24T08:49:06;34.48;39.41
65478;SHT31;53678;39.642;22.430;2023-08-24T08:51:39;34.11;40.47
65478;SHT31;53678;39.642;22.430;2023-08-24T08:54:06;34.23;40.55
65478;SHT31;53678;39.642;22.430;2023-08-24T08:56:32;34.25;39.63
65478;SHT31;53678;39.642;22.430;2023-08-24T08:59:00;33.94;40.33
65478;SHT31;53678;39.642;22.430;2023-08-24T09:01:28;34.69;39.54
65478;SHT31;53678;39.642;22.430;2023-08-24T09:03:54;34.50;40.38
65478;SHT31;53678;39.642;22.430;2023-08-24T09:06:21;34.31;40.55
65478;SHT31;53678;39.642;22.430;2023-08-24T09:08:49;34.19;41.05
65478;SHT31;53678;39.642;22.430;2023-08-24T09:11:17;34.07;40.93
65478;SHT31;53678;39.642;22.430;2023-08-24T09:13:50;34.33;40.29
65478;SHT31;53678;39.642;22.430;2023-08-24T09:16:23;34.40;40.35
65478;SHT31;53678;39.642;22.430;2023-08-24T09:18:54;34.16;41.27
65478;SHT31;53678;39.642;22.430;2023-08-24T09:21:20;34.16;40.75
65478;SHT31;53678;39.642;22.430;2023-08-24T09:23:53;34.28;40.69
65478;SHT31;53678;39.642;22.430;2023-08-24T09:26:34;34.65;40.23
65478;SHT31;53678;39.642;22.430;2023-08-24T09:29:01;35.02;39.83
65478;SHT31;53678;39.642;22.430;2023-08-24T09:31:37;34.74;39.44
65478;SHT31;53678;39.642;22.430;2023-08-24T09:34:04;34.79;39.36
65478;SHT31;53678;39.642;22.430;2023-08-24T09:36:36;34.58;39.48
65478;SHT31;53678;39.642;22.430;2023-08-24T09:39:03;34.21;40.03
65478;SHT31;53678;39.642;22.430;2023-08-24T09:41:45;33.86;40.96
65478;SHT31;53678;39.642;22.430;2023-08-24T09:44:11;34.17;40.48
65478;SHT31;53678;39.642;22.430;2023-08-24T09:46:38;34.25;40.19
65478;SHT31;53678;39.642;22.430;2023-08-24T09:49:08;34.33;40.57
65478;SHT31;53678;39.642;22.430;2023-08-24T09:51:36;34.81;39.60
65478;SHT31;53678;39.642;22.430;2023-08-24T09:54:05;34.79;39.70
65478;SHT31;53678;39.642;22.430;2023-08-24T09:56:37;34.67;39.50
65478;SHT31;53678;39.642;22.430;2023-08-24T09:59:26;34.71;40.59
65478;SHT31;53678;39.642;22.430;2023-08-24T10:01:54;34.61;40.59
65478;SHT31;53678;39.642;22.430;2023-08-24T10:04:24;34.58;40.55
65478;SHT31;53678;39.642;22.430;2023-08-24T10:07:03;34.45;40.22
65478;SHT31;53678;39.642;22.430;2023-08-24T10:12:12;34.95;40.06
65478;SHT31;53678;39.642;22.430;2023-08-24T10:14:49;34.95;39.79
65478;SHT31;53678;39.642;22.430;2023-08-24T10:17:16;35.02;39.55
65478;SHT31;53678;39.642;22.430;2023-08-24T10:19:42;34.74;40.06
65478;SHT31;53678;39.642;22.430;2023-08-24T10:22:09;34.88;39.91
65478;SHT31;53678;39.642;22.430;2023-08-24T10:24:35;34.78;39.91
65478;SHT31;53678;39.642;22.430;2023-08-24T10:27:02;34.98;40.13
65478;SHT31;53678;39.642;22.430;2023-08-24T10:29:29;35.03;39.70
65478;SHT31;53678;39.642;22.430;2023-08-24T10:31:55;34.86;40.01
65478;SHT31;53678;39.642;22.430;2023-08-24T10:34:22;34.91;39.96
65478;SHT31;53678;39.642;22.430;2023-08-24T10:36:50;34.92;39.61
65478;SHT31;53678;39.642;22.430;2023-08-24T10:39:17;34.91;40.06
65478;SHT31;53678;39.642;22.430;2023-08-24T10:41:51;34.23;40.66
65478;SHT31;53678;39.642;22.430;2023-08-24T10:44:38;34.79;40.92
65478;SHT31;53678;39.642;22.430;2023-08-24T10:49:38;35.12;39.79
65478;SHT31;53678;39.642;22.430;2023-08-24T10:52:29;35.61;39.22
65478;SHT31;53678;39.642;22.430;2023-08-24T10:54:55;35.97;39.18
65478;SHT31;53678;39.642;22.430;2023-08-24T10:57:39;35.91;38.67
65478;SHT31;53678;39.642;22.430;2023-08-24T11:00:08;35.60;39.04
65478;SHT31;53678;39.642;22.430;2023-08-24T11:08:03;35.35;38.88
65478;SHT31;53678;39.642;22.430;2023-08-24T11:10:45;35.56;38.69
65478;SHT31;53678;39.642;22.430;2023-08-24T11:13:18;35.05;39.10
65478;SHT31;53678;39.642;22.430;2023-08-24T11:15:49;35.50;38.72
65478;SHT31;53678;39.642;22.430;2023-08-24T11:18:25;35.72;38.55
65478;SHT31;53678;39.642;22.430;2023-08-24T11:23:23;35.64;38.88
65478;SHT31;53678;39.642;22.430;2023-08-24T11:25:51;35.74;38.19
65478;SHT31;53678;39.642;22.430;2023-08-24T11:28:21;35.64;39.08
65478;SHT31;53678;39.642;22.430;2023-08-24T11:30:47;36.00;38.34
65478;SHT31;53678;39.642;22.430;2023-08-24T11:33:13;36.21;37.85
65478;SHT31;53678;39.642;22.430;2023-08-24T11:35:44;36.22;37.79
65478;SHT31;53678;39.642;22.430;2023-08-24T11:38:11;36.22;37.50
65478;SHT31;53678;39.642;22.430;2023-08-24T11:40:44;36.43;37.50
65478;SHT31;53678;39.642;22.430;2023-08-24T11:43:09;36.56;37.69
65478;SHT31;53678;39.642;22.430;2023-08-24T11:45:37;36.80;37.14
65478;SHT31;53678;39.642;22.430;2023-08-24T11:48:04;36.60;36.96
65478;SHT31;53678;39.642;22.430;2023-08-24T11:50:33;36.68;37.19
65478;SHT31;53678;39.642;22.430;2023-08-24T11:53:02;36.87;37.32
65478;SHT31;53678;39.642;22.430;2023-08-24T11:55:28;36.43;37.57
65478;SHT31;53678;39.642;22.430;2023-08-24T11:57:54;36.60;37.53
65478;SHT31;53678;39.642;22.430;2023-08-24T12:00:22;36.63;37.78
65478;SHT31;53678;39.642;22.430;2023-08-24T12:02:49;36.39;37.88
65478;SHT31;53678;39.642;22.430;2023-08-24T12:05:24;35.97;38.91
65478;SHT31;53678;39.642;22.430;2023-08-24T12:07:54;35.72;38.90
65478;SHT31;53678;39.642;22.430;2023-08-24T12:10:20;35.61;39.34
65478;SHT31;53678;39.642;22.430;2023-08-24T12:12:48;35.81;39.52
65478;SHT31;53678;39.642;22.430;2023-08-24T12:15:21;35.94;39.11
65478;SHT31;53678;39.642;22.430;2023-08-24T12:17:49;35.91;38.83
65478;SHT31;53678;39.642;22.430;2023-08-24T12:20:19;35.90;39.02
65478;SHT31;53678;39.642;22.430;2023-08-24T12:22:53;35.85;39.08
65478;SHT31;53678;39.642;22.430;2023-08-24T12:25:22;35.49;39.24
65478;SHT31;53678;39.642;22.430;2023-08-24T12:27:50;35.54;39.75
65478;SHT31;53678;39.642;22.430;2023-08-24T12:30:16;35.85;38.92
65478;SHT31;53678;39.642;22.430;2023-08-24T12:32:44;35.94;38.55
65478;SHT31;53678;39.642;22.430;2023-08-24T12:35:10;35.70;38.64
65478;SHT31;53678;39.642;22.430;2023-08-24T12:37:36;35.77;38.97
65478;SHT31;53678;39.642;22.430;2023-08-24T12:40:03;35.83;38.52
65478;SHT31;53678;39.642;22.430;2023-08-24T12:42:32;35.74;38.83
65478;SHT31;53678;39.642;22.430;2023-08-24T12:44:58;36.05;38.48
65478;SHT31;53678;39.642;22.430;2023-08-24T12:47:24;35.88;38.51
65478;SHT31;53678;39.642;22.430;2023-08-24T12:49:50;35.95;38.52
65478;SHT31;53678;39.642;22.430;2023-08-24T12:52:21;35.80;38.77
65478;SHT31;53678;39.642;22.430;2023-08-24T12:54:47;35.70;38.54
65478;SHT31;53678;39.642;22.430;2023-08-24T12:57:13;35.61;38.66
65478;SHT31;53678;39.642;22.430;2023-08-24T12:59:39;35.70;39.00
65478;SHT31;53678;39.642;22.430;2023-08-24T13:02:05;35.73;38.63
65478;SHT31;53678;39.642;22.430;2023-08-24T13:04:31;35.70;38.45
65478;SHT31;53678;39.642;22.430;2023-08-24T13:06:58;35.44;38.73
65478;SHT31;53678;39.642;22.430;2023-08-24T13:09:24;35.80;38.42
65478;SHT31;53678;39.642;22.430;2023-08-24T13:11:50;35.95;38.11
65478;SHT31;53678;39.642;22.430;2023-08-24T13:14:15;35.87;38.57
65478;SHT31;53678;39.642;22.430;2023-08-24T13:16:41;36.01;38.24
65478;SHT31;53678;39.642;22.430;2023-08-24T13:19:07;35.76;38.16
65478;SHT31;53678;39.642;22.430;2023-08-24T13:21:34;36.02;38.27
65478;SHT31;53678;39.642;22.430;2023-08-24T13:24:00;35.84;37.97
65478;SHT31;53678;39.642;22.430;2023-08-24T13:26:27;35.84;38.06
65478;SHT31;53678;39.642;22.430;2023-08-24T13:28:52;36.02;37.76
65478;SHT31;53678;39.642;22.430;2023-08-24T13:31:18;35.78;37.96
65478;SHT31;53678;39.642;22.430;2023-08-24T13:33:46;35.74;38.00
65478;SHT31;53678;39.642;22.430;2023-08-24T13:36:12;35.88;37.72
65478;SHT31;53678;39.642;22.430;2023-08-24T13:38:38;35.94;37.81
65478;SHT31;53678;39.642;22.430;2023-08-24T13:41:04;36.20;37.78
65478;SHT31;53678;39.642;22.430;2023-08-24T13:43:31;36.14;37.89
65478;SHT31;53678;39.642;22.430;2023-08-24T13:45:57;36.21;37.54
65478;SHT31;53678;39.642;22.430;2023-08-24T13:48:22;35.95;38.04
65478;SHT31;53678;39.642;22.430;2023-08-24T13:50:50;35.83;38.02
65478;SHT31;53678;39.642;22.430;2023-08-24T13:53:21;36.00;37.63
65478;SHT31;53678;39.642;22.430;2023-08-24T13:55:46;36.08;37.72
65478;SHT31;53678;39.642;22.430;2023-08-24T13:58:12;35.90;37.46
65478;SHT31;53678;39.642;22.430;2023-08-24T14:00:38;35.98;37.80
65478;SHT31;53678;39.642;22.430;2023-08-24T14:03:05;36.17;37.75
65478;SHT31;53678;39.642;22.430;2023-08-24T14:05:30;36.20;37.52
65478;SHT31;53678;39.642;22.430;2023-08-24T14:07:56;36.00;37.56
65478;SHT31;53678;39.642;22.430;2023-08-24T14:10:22;35.90;37.73
65478;SHT31;53678;39.642;22.430;2023-08-24T14:12:48;35.98;37.55
65478;SHT31;53678;39.642;22.430;2023-08-24T14:15:15;36.05;37.90
65478;SHT31;53678;39.642;22.430;2023-08-24T14:17:41;35.69;38.06
65478;SHT31;53678;39.642;22.430;2023-08-24T14:20:07;35.83;38.03
65478;SHT31;53678;39.642;22.430;2023-08-24T14:22:34;35.93;37.94
65478;SHT31;53678;39.642;22.430;2023-08-24T14:25:00;35.78;38.34
65478;SHT31;53678;39.642;22.430;2023-08-24T14:27:26;35.44;38.69
65478;SHT31;53678;39.642;22.430;2023-08-24T14:29:53;35.44;38.98
65478;SHT31;53678;39.642;22.430;2023-08-24T14:32:20;35.43;38.45
65478;SHT31;53678;39.642;22.430;2023-08-24T14:34:49;35.35;38.46
65478;SHT31;53678;39.642;22.430;2023-08-24T14:37:16;35.40;38.83
65478;SHT31;53678;39.642;22.430;2023-08-24T14:39:41;35.49;38.37
65478;SHT31;53678;39.642;22.430;2023-08-24T14:42:07;35.51;36.57
65478;SHT31;53678;39.642;22.430;2023-08-24T14:44:33;35.51;34.49
65478;SHT31;53678;39.642;22.430;2023-08-24T14:47:00;35.74;34.04
65478;SHT31;53678;39.642;22.430;2023-08-24T14:49:26;35.69;33.90
65478;SHT31;53678;39.642;22.430;2023-08-24T14:51:51;35.58;35.12
65478;SHT31;53678;39.642;22.430;2023-08-24T14:54:17;35.56;35.47
65478;SHT31;53678;39.642;22.430;2023-08-24T14:56:43;35.49;35.81
65478;SHT31;53678;39.642;22.430;2023-08-24T14:59:09;35.40;35.86
65478;SHT31;53678;39.642;22.430;2023-08-24T15:01:35;35.26;36.24
65478;SHT31;53678;39.642;22.430;2023-08-24T15:04:00;35.26;37.31
65478;SHT31;53678;39.642;22.430;2023-08-24T15:06:26;35.19;38.26
65478;SHT31;53678;39.642;22.430;2023-08-24T15:08:52;35.13;38.51
65478;SHT31;53678;39.642;22.430;2023-08-24T15:11:18;35.22;37.94
65478;SHT31;53678;39.642;22.430;2023-08-24T15:13:44;35.37;37.57
65478;SHT31;53678;39.642;22.430;2023-08-24T15:16:10;35.22;38.10
65478;SHT31;53678;39.642;22.430;2023-08-24T15:18:35;35.13;38.54
65478;SHT31;53678;39.642;22.430;2023-08-24T15:21:01;35.05;38.52
65478;SHT31;53678;39.642;22.430;2023-08-24T15:23:29;34.98;38.68
65478;SHT31;53678;39.642;22.430;2023-08-24T15:25:57;34.98;38.57
65478;SHT31;53678;39.642;22.430;2023-08-24T15:28:24;34.95;39.01
65478;SHT31;53678;39.642;22.430;2023-08-24T15:30:50;34.86;39.33
65478;SHT31;53678;39.642;22.430;2023-08-24T15:33:17;34.88;39.32
65478;SHT31;53678;39.642;22.430;2023-08-24T15:35:43;34.74;39.87
65478;SHT31;53678;39.642;22.430;2023-08-24T15:38:09;34.50;41.23
65478;SHT31;53678;39.642;22.430;2023-08-24T15:40:37;34.51;41.56
65478;SHT31;53678;39.642;22.430;2023-08-24T15:43:04;34.33;41.72
65478;SHT31;53678;39.642;22.430;2023-08-24T15:45:31;34.19;42.25
65478;SHT31;53678;39.642;22.430;2023-08-24T15:47:57;34.16;41.95